Time;durP1;ratioP1;P1;durP2;ratioP2;P2;SDS_P1;SDS_P2;PMS_P1;PMS_P2;Temp;Humidity;BMP_temperature;BMP_pressure;BME280_temperature;BME280_humidity;BME280_pressure;Samples;Min_cycle;Max_cycle;Signal;HPM_P1;HPM_P2
2021/08/02 00:01:28;;;;;;;14.60;13.47;;;16.90;99.90;;;;;;5070686;28;20470;-66
2021/08/02 00:04:00;;;;;;;18.77;16.87;;;16.90;99.90;;;;;;5071617;28;20438;-66
2021/08/02 00:06:39;;;;;;;15.40;14.13;;;16.90;99.90;;;;;;5071225;28;20447;-67
2021/08/02 00:09:08;;;;;;;17.03;15.33;;;16.90;99.90;;;;;;5071073;28;20451;-66
2021/08/02 00:11:38;;;;;;;17.27;15.57;;;16.90;99.90;;;;;;5071409;28;20482;-66
2021/08/02 00:14:09;;;;;;;13.97;12.90;;;16.90;99.90;;;;;;5051604;28;20447;-67
2021/08/02 00:16:39;;;;;;;15.03;13.80;;;16.90;99.90;;;;;;5060407;28;20449;-66
2021/08/02 00:19:07;;;;;;;15.10;13.70;;;16.90;99.90;;;;;;5071295;28;20447;-66
2021/08/02 00:21:35;;;;;;;14.23;13.03;;;16.90;99.90;;;;;;5070664;28;20467;-66
2021/08/02 00:24:02;;;;;;;13.30;12.30;;;16.90;99.90;;;;;;5070656;28;20443;-66
2021/08/02 00:26:30;;;;;;;13.60;12.50;;;16.90;99.90;;;;;;5070825;28;20450;-66
2021/08/02 00:28:59;;;;;;;12.20;11.30;;;16.90;99.90;;;;;;5070704;28;20469;-66
2021/08/02 00:31:26;;;;;;;13.43;12.23;;;17.00;99.90;;;;;;5070919;28;20475;-66
2021/08/02 00:33:54;;;;;;;13.10;11.77;;;16.90;99.90;;;;;;5070679;28;20449;-66
2021/08/02 00:36:26;;;;;;;14.63;10.97;;;16.90;99.90;;;;;;5071270;28;20447;-66
2021/08/02 00:39:00;;;;;;;11.27;10.57;;;16.90;99.90;;;;;;5071100;28;20451;-66
2021/08/02 00:42:02;;;;;;;11.70;10.80;;;17.00;99.90;;;;;;5071041;28;20470;-66
2021/08/02 00:44:58;;;;;;;13.17;12.17;;;17.00;99.90;;;;;;5071121;28;20585;-66
2021/08/02 00:47:28;;;;;;;11.90;11.00;;;17.00;99.90;;;;;;5071221;28;20462;-66
2021/08/02 00:50:04;;;;;;;13.63;12.47;;;17.00;99.90;;;;;;5071322;28;20449;-66
2021/08/02 00:52:32;;;;;;;14.10;13.00;;;16.90;99.90;;;;;;5070173;28;20486;-66
2021/08/02 00:55:00;;;;;;;14.57;13.40;;;16.90;99.90;;;;;;5071238;28;20447;-66
2021/08/02 00:57:31;;;;;;;13.70;12.53;;;16.80;99.90;;;;;;5070898;28;20854;-66
2021/08/02 01:00:01;;;;;;;13.77;12.60;;;16.80;99.90;;;;;;5070769;28;20502;-66
2021/08/02 01:02:29;;;;;;;12.90;11.80;;;16.80;99.90;;;;;;5070404;28;20467;-66
2021/08/02 01:04:58;;;;;;;12.73;11.83;;;16.80;99.90;;;;;;5070924;28;20446;-66
2021/08/02 01:07:27;;;;;;;13.00;12.10;;;16.80;99.90;;;;;;5070336;28;20448;-66
2021/08/02 01:09:55;;;;;;;13.50;12.47;;;16.80;99.90;;;;;;5071043;28;20443;-66
2021/08/02 01:12:23;;;;;;;12.40;11.17;;;16.70;99.90;;;;;;5070445;28;20479;-66
2021/08/02 01:14:50;;;;;;;13.47;10.80;;;16.70;99.90;;;;;;5070622;28;20439;-66
2021/08/02 01:17:17;;;;;;;12.03;11.13;;;16.70;99.90;;;;;;5070708;28;20446;-66
2021/08/02 01:19:45;;;;;;;12.40;11.40;;;16.60;99.90;;;;;;5073700;28;20443;-66
2021/08/02 01:22:21;;;;;;;11.50;10.60;;;16.60;99.90;;;;;;5073862;28;20467;-66
2021/08/02 01:24:47;;;;;;;13.50;12.33;;;16.50;99.90;;;;;;5073385;28;20450;-66
2021/08/02 01:27:46;;;;;;;12.20;11.20;;;16.50;99.90;;;;;;5073776;28;20458;-65
2021/08/02 01:30:19;;;;;;;11.43;10.53;;;16.40;99.90;;;;;;5074179;28;20783;-66
2021/08/02 01:32:47;;;;;;;13.73;10.97;;;16.40;99.90;;;;;;5073865;28;20545;-66
2021/08/02 01:35:14;;;;;;;12.33;11.23;;;16.40;99.90;;;;;;5074142;28;20439;-66
2021/08/02 01:37:43;;;;;;;11.10;10.17;;;16.40;99.90;;;;;;5073881;28;20452;-66
2021/08/02 01:40:11;;;;;;;13.37;12.23;;;16.40;99.90;;;;;;5073648;28;20470;-66
2021/08/02 01:42:38;;;;;;;9.87;9.07;;;16.40;99.90;;;;;;5073437;28;20532;-65
2021/08/02 01:45:06;;;;;;;10.93;10.13;;;16.40;99.90;;;;;;5074253;28;20450;-66
2021/08/02 01:47:38;;;;;;;10.33;9.43;;;16.40;99.90;;;;;;5073896;28;20443;-66
2021/08/02 01:50:15;;;;;;;9.60;8.80;;;16.40;99.90;;;;;;5073650;28;20454;-66
2021/08/02 01:52:55;;;;;;;10.40;9.60;;;16.40;99.90;;;;;;5072777;28;20479;-65
2021/08/02 01:55:24;;;;;;;11.07;10.17;;;16.40;99.90;;;;;;5073505;28;20815;-65
2021/08/02 01:57:55;;;;;;;10.70;9.80;;;16.40;99.90;;;;;;5073849;28;20765;-65
2021/08/02 02:00:22;;;;;;;11.30;10.17;;;16.40;99.90;;;;;;5073639;28;20443;-65
2021/08/02 02:03:08;;;;;;;9.83;9.20;;;16.40;99.90;;;;;;5073005;28;20984;-65
2021/08/02 02:05:38;;;;;;;9.30;8.40;;;16.40;99.90;;;;;;5073772;28;20451;-65
2021/08/02 02:08:12;;;;;;;9.53;8.77;;;16.40;99.90;;;;;;5073915;28;20439;-65
2021/08/02 02:10:42;;;;;;;9.03;8.23;;;16.30;99.90;;;;;;5073291;28;20443;-65
2021/08/02 02:13:14;;;;;;;9.93;9.33;;;16.30;99.90;;;;;;5073272;28;20989;-65
2021/08/02 02:15:45;;;;;;;10.37;9.67;;;16.20;99.90;;;;;;5073520;28;20443;-65
2021/08/02 02:18:13;;;;;;;10.33;9.57;;;16.20;99.90;;;;;;5073452;28;20443;-65
2021/08/02 02:20:43;;;;;;;10.40;9.67;;;16.20;99.90;;;;;;5072942;28;20451;-65
2021/08/02 02:23:13;;;;;;;10.17;9.53;;;16.20;99.90;;;;;;5072930;28;20447;-65
2021/08/02 02:25:41;;;;;;;9.43;8.93;;;16.20;99.90;;;;;;5073399;28;20444;-65
2021/08/02 02:28:09;;;;;;;9.57;9.07;;;16.20;99.90;;;;;;5073253;28;20862;-65
2021/08/02 02:30:37;;;;;;;9.73;9.23;;;16.20;99.90;;;;;;5072577;28;20439;-65
2021/08/02 02:33:05;;;;;;;9.90;9.33;;;16.20;99.90;;;;;;5072830;28;20475;-65
2021/08/02 02:35:33;;;;;;;10.37;9.67;;;16.10;99.90;;;;;;5073049;28;20450;-65
2021/08/02 02:38:00;;;;;;;10.47;9.77;;;16.10;99.90;;;;;;5073143;28;20809;-65
2021/08/02 02:40:28;;;;;;;10.53;9.63;;;16.10;99.90;;;;;;5072248;28;20439;-65
2021/08/02 02:42:55;;;;;;;12.13;11.20;;;16.10;99.90;;;;;;5072378;28;20546;-65
2021/08/02 02:45:23;;;;;;;10.60;10.03;;;16.00;99.90;;;;;;5072678;28;20447;-65
2021/08/02 02:47:50;;;;;;;11.13;10.30;;;16.00;99.90;;;;;;5072942;28;20500;-65
2021/08/02 02:50:18;;;;;;;10.97;10.00;;;16.00;99.90;;;;;;5072640;28;20455;-65
2021/08/02 02:52:45;;;;;;;10.70;10.10;;;16.00;99.90;;;;;;5072462;28;20490;-65
2021/08/02 02:55:13;;;;;;;11.80;11.10;;;16.00;99.90;;;;;;5072557;28;20444;-65
2021/08/02 02:57:41;;;;;;;11.20;10.70;;;16.00;99.90;;;;;;5072787;28;20942;-65
2021/08/02 03:00:09;;;;;;;11.50;10.80;;;15.90;99.90;;;;;;5072849;28;20447;-65
2021/08/02 03:02:36;;;;;;;11.43;10.80;;;16.00;99.90;;;;;;5072353;28;20463;-65
2021/08/02 03:05:06;;;;;;;11.90;11.20;;;16.00;99.90;;;;;;5072358;28;20482;-65
2021/08/02 03:07:34;;;;;;;11.80;11.20;;;16.00;99.90;;;;;;5072611;28;20462;-65
2021/08/02 03:10:02;;;;;;;13.17;12.30;;;16.00;99.90;;;;;;5072505;28;20449;-65
2021/08/02 03:12:30;;;;;;;11.40;10.87;;;16.10;99.90;;;;;;5072044;28;20536;-65
2021/08/02 03:14:58;;;;;;;11.23;10.63;;;16.10;99.90;;;;;;5072298;28;20451;-65
2021/08/02 03:17:25;;;;;;;13.13;12.23;;;16.10;99.90;;;;;;5072202;28;20455;-65
2021/08/02 03:19:52;;;;;;;11.97;11.37;;;16.10;99.90;;;;;;5071970;28;20451;-65
2021/08/02 03:22:24;;;;;;;12.27;11.20;;;16.00;99.90;;;;;;5078460;22;20488;-68
2021/08/02 03:25:02;;;;;;;12.60;11.57;;;16.00;99.90;;;;;;5052229;28;20444;-68
2021/08/02 03:27:35;;;;;;;11.73;11.13;;;16.00;99.90;;;;;;5051941;28;20448;-68
2021/08/02 03:30:06;;;;;;;11.73;10.83;;;16.00;99.90;;;;;;5051914;28;20448;-68
2021/08/02 03:32:36;;;;;;;14.40;12.83;;;16.00;99.90;;;;;;5051282;28;20541;-68
2021/08/02 03:35:07;;;;;;;11.10;10.40;;;16.00;99.90;;;;;;5051842;28;20471;-68
2021/08/02 03:37:36;;;;;;;11.80;11.00;;;16.10;99.90;;;;;;5051454;28;20471;-69
2021/08/02 03:40:04;;;;;;;11.40;10.60;;;16.10;99.90;;;;;;5051098;28;20951;-68
2021/08/02 03:42:34;;;;;;;11.13;10.43;;;16.00;99.90;;;;;;5050475;28;20467;-68
2021/08/02 03:45:04;;;;;;;11.30;10.60;;;16.00;99.90;;;;;;5051412;28;20452;-68
2021/08/02 03:47:30;;;;;;;10.63;10.03;;;16.00;99.90;;;;;;5051424;28;20451;-68
2021/08/02 03:49:57;;;;;;;11.97;11.03;;;16.00;99.90;;;;;;5051564;28;20452;-68
2021/08/02 03:52:24;;;;;;;12.20;11.67;;;16.00;99.90;;;;;;5051106;28;20460;-68
2021/08/02 03:54:51;;;;;;;12.30;11.70;;;15.90;99.90;;;;;;5051469;28;20938;-68
2021/08/02 03:57:19;;;;;;;13.37;12.67;;;15.90;99.90;;;;;;5051484;28;20455;-68
2021/08/02 03:59:47;;;;;;;13.27;12.30;;;15.80;99.90;;;;;;5051170;28;20525;-68
2021/08/02 04:02:15;;;;;;;12.47;11.77;;;15.80;99.90;;;;;;5051231;28;20479;-68
2021/08/02 04:04:41;;;;;;;13.10;12.30;;;15.80;99.90;;;;;;5051468;28;20441;-68
2021/08/02 04:07:08;;;;;;;12.67;11.97;;;15.80;99.90;;;;;;5051280;28;20451;-68
2021/08/02 04:09:36;;;;;;;12.80;11.93;;;15.80;99.90;;;;;;5051193;28;20444;-68
2021/08/02 04:12:08;;;;;;;13.83;12.87;;;15.80;99.90;;;;;;5050979;28;20892;-68
2021/08/02 04:14:35;;;;;;;13.80;12.70;;;15.80;99.90;;;;;;5050898;28;20560;-68
2021/08/02 04:17:02;;;;;;;13.83;12.67;;;15.80;99.90;;;;;;5050752;28;20440;-68
2021/08/02 04:19:30;;;;;;;13.07;12.00;;;15.80;99.90;;;;;;5050793;28;20452;-68
2021/08/02 04:21:58;;;;;;;13.00;12.00;;;15.80;99.90;;;;;;5050837;28;20472;-69
2021/08/02 04:24:25;;;;;;;13.23;12.33;;;15.80;99.90;;;;;;5051232;28;20804;-69
2021/08/02 04:26:52;;;;;;;13.57;12.73;;;15.90;99.90;;;;;;5051352;28;20475;-67
2021/08/02 04:29:19;;;;;;;13.53;12.63;;;15.90;99.90;;;;;;5051050;28;20444;-68
2021/08/02 04:31:45;;;;;;;13.73;13.00;;;16.00;99.90;;;;;;5050784;28;20464;-68
2021/08/02 04:34:12;;;;;;;13.60;12.80;;;16.00;99.90;;;;;;5050760;28;20479;-69
2021/08/02 04:36:40;;;;;;;15.33;14.50;;;16.10;99.90;;;;;;5051074;28;21015;-68
2021/08/02 04:39:07;;;;;;;14.73;13.23;;;16.20;99.90;;;;;;5051285;28;20455;-67
2021/08/02 04:41:34;;;;;;;13.97;13.17;;;16.20;99.90;;;;;;5050620;28;20554;-67
2021/08/02 04:44:00;;;;;;;14.60;13.80;;;16.10;99.90;;;;;;5051035;28;20444;-69
2021/08/02 04:46:27;;;;;;;16.40;14.93;;;16.10;99.90;;;;;;5050738;28;20467;-71
2021/08/02 04:48:54;;;;;;;15.33;14.13;;;16.10;99.90;;;;;;5049314;28;20444;-68
2021/08/02 04:51:20;;;;;;;14.43;13.57;;;16.20;99.90;;;;;;5048920;28;20480;-69
2021/08/02 04:53:48;;;;;;;14.90;13.90;;;16.30;99.90;;;;;;5050281;28;20483;-68
2021/08/02 04:56:15;;;;;;;14.63;13.73;;;16.40;99.90;;;;;;5053233;28;20440;-68
2021/08/02 04:58:42;;;;;;;16.17;14.97;;;16.40;99.90;;;;;;5053071;28;20452;-68
2021/08/02 05:01:08;;;;;;;13.40;12.70;;;16.50;99.90;;;;;;5052773;28;20439;-68
2021/08/02 05:03:37;;;;;;;15.27;14.33;;;16.60;99.90;;;;;;5054728;28;20491;-68
2021/08/02 05:06:04;;;;;;;14.27;13.57;;;16.60;99.90;;;;;;5055033;28;20444;-68
2021/08/02 05:08:30;;;;;;;14.30;13.60;;;16.70;99.90;;;;;;5054967;28;20447;-68
2021/08/02 05:10:58;;;;;;;14.57;13.90;;;16.80;99.90;;;;;;5054553;28;20467;-68
2021/08/02 05:13:25;;;;;;;15.00;14.30;;;16.70;99.90;;;;;;5054796;28;20483;-68
2021/08/02 05:15:52;;;;;;;15.27;14.37;;;16.70;99.90;;;;;;5054906;28;20451;-68
2021/08/02 05:18:18;;;;;;;14.77;14.07;;;16.70;99.90;;;;;;5054572;28;20443;-68
2021/08/02 05:20:45;;;;;;;15.87;14.90;;;16.70;99.90;;;;;;5054588;28;20447;-68
2021/08/02 05:23:12;;;;;;;16.20;15.30;;;16.70;99.90;;;;;;5054652;28;20471;-70
2021/08/02 05:25:39;;;;;;;15.27;14.57;;;16.60;99.90;;;;;;5054762;28;20807;-70
2021/08/02 05:28:07;;;;;;;16.87;15.00;;;16.60;99.90;;;;;;5054897;28;20444;-68
2021/08/02 05:30:34;;;;;;;15.77;15.10;;;16.50;99.90;;;;;;5054609;28;20444;-68
2021/08/02 05:33:01;;;;;;;15.87;14.97;;;16.50;99.90;;;;;;5053318;28;20480;-68
2021/08/02 05:35:29;;;;;;;15.47;14.80;;;16.60;99.90;;;;;;5053306;28;20444;-68
2021/08/02 05:37:55;;;;;;;15.43;14.70;;;16.60;99.90;;;;;;5053916;28;20911;-68
2021/08/02 05:40:22;;;;;;;15.87;15.07;;;16.60;99.90;;;;;;5053800;28;20448;-70
2021/08/02 05:42:49;;;;;;;15.13;14.50;;;16.60;99.90;;;;;;5054168;28;20494;-69
2021/08/02 05:45:17;;;;;;;16.10;15.33;;;16.60;99.90;;;;;;5054083;28;20790;-69
2021/08/02 05:47:44;;;;;;;15.30;14.40;;;16.70;99.90;;;;;;5054070;28;20451;-67
2021/08/02 05:50:11;;;;;;;16.57;15.50;;;16.90;99.90;;;;;;5054326;28;20444;-69
2021/08/02 05:52:41;;;;;;;15.43;14.67;;;17.00;99.90;;;;;;5054343;28;20841;-68
2021/08/02 05:55:08;;;;;;;15.80;15.07;;;17.00;99.90;;;;;;5054113;28;20480;-68
2021/08/02 05:57:35;;;;;;;15.70;14.90;;;17.00;99.90;;;;;;5054524;28;20855;-69
2021/08/02 06:00:02;;;;;;;15.40;14.70;;;17.00;99.90;;;;;;5054012;28;20444;-68
2021/08/02 06:02:30;;;;;;;16.50;15.67;;;17.10;99.90;;;;;;5053748;28;20610;-68
2021/08/02 06:04:57;;;;;;;15.50;14.80;;;17.00;99.90;;;;;;5052755;28;20907;-68
2021/08/02 06:07:24;;;;;;;15.40;14.60;;;17.00;99.90;;;;;;5053843;28;20447;-68
2021/08/02 06:09:51;;;;;;;14.73;14.03;;;16.90;99.90;;;;;;5053870;28;20444;-69
2021/08/02 06:12:18;;;;;;;15.70;14.40;;;17.00;99.90;;;;;;5053637;28;20523;-68
2021/08/02 06:14:45;;;;;;;15.20;14.60;;;17.00;99.90;;;;;;5053606;28;20903;-67
2021/08/02 06:17:12;;;;;;;15.43;14.57;;;17.00;99.90;;;;;;5053723;28;20444;-67
2021/08/02 06:19:43;;;;;;;15.07;14.47;;;17.00;99.90;;;;;;5053557;28;20447;-67
2021/08/02 06:22:10;;;;;;;15.23;14.53;;;17.00;99.90;;;;;;5052897;28;20480;-67
2021/08/02 06:24:37;;;;;;;16.20;15.50;;;17.00;99.90;;;;;;5053493;28;20444;-68
2021/08/02 06:27:05;;;;;;;15.10;14.50;;;17.10;99.90;;;;;;5053488;28;20455;-66
2021/08/02 06:29:31;;;;;;;15.90;15.20;;;17.30;99.90;;;;;;5053417;28;20432;-68
2021/08/02 06:31:58;;;;;;;15.07;14.47;;;17.40;99.90;;;;;;5053022;28;20464;-67
2021/08/02 06:34:25;;;;;;;17.43;16.33;;;17.40;99.90;;;;;;5053236;28;20484;-67
2021/08/02 06:36:53;;;;;;;16.03;15.43;;;17.60;99.90;;;;;;5053364;28;20448;-67
2021/08/02 06:39:19;;;;;;;16.03;15.30;;;17.80;99.90;;;;;;5052997;28;20444;-67
2021/08/02 06:41:46;;;;;;;15.70;14.87;;;18.00;99.90;;;;;;5052741;28;20471;-68
2021/08/02 06:44:13;;;;;;;16.30;15.60;;;18.10;99.90;;;;;;5053181;28;20443;-67
2021/08/02 06:46:40;;;;;;;16.13;15.30;;;18.10;99.90;;;;;;5053138;28;20535;-67
2021/08/02 06:49:06;;;;;;;16.90;16.10;;;18.20;99.90;;;;;;5053087;28;20448;-68
2021/08/02 06:51:33;;;;;;;16.87;16.07;;;18.30;99.90;;;;;;5052702;28;20473;-67
2021/08/02 06:54:01;;;;;;;16.40;15.50;;;18.20;99.90;;;;;;5052492;28;20537;-68
2021/08/02 06:56:28;;;;;;;15.90;15.23;;;18.10;99.90;;;;;;5052546;28;20447;-68
2021/08/02 06:58:54;;;;;;;16.27;15.40;;;18.10;99.90;;;;;;5052824;28;20440;-68
2021/08/02 07:01:21;;;;;;;16.50;15.20;;;18.10;99.90;;;;;;5052570;28;20819;-68
2021/08/02 07:03:48;;;;;;;15.53;14.73;;;18.00;99.90;;;;;;5052426;28;20437;-68
2021/08/02 07:06:15;;;;;;;17.30;16.40;;;17.90;99.90;;;;;;5052524;28;20448;-68
2021/08/02 07:08:41;;;;;;;17.77;16.10;;;18.00;99.90;;;;;;5052589;28;20436;-68
2021/08/02 07:11:09;;;;;;;15.47;14.70;;;18.20;99.90;;;;;;5052206;28;20846;-68
2021/08/02 07:13:36;;;;;;;15.93;14.77;;;18.20;99.90;;;;;;5052350;28;20475;-68
2021/08/02 07:16:03;;;;;;;15.30;14.70;;;18.20;99.90;;;;;;5052412;28;20451;-68
2021/08/02 07:18:32;;;;;;;15.90;15.20;;;18.30;99.90;;;;;;5052273;28;20483;-67
2021/08/02 07:20:59;;;;;;;13.48;12.93;;;18.60;99.90;;;;;;5051415;28;20443;-68
2021/08/02 07:23:26;;;;;;;14.63;14.03;;;18.80;99.90;;;;;;5052100;28;20698;-68
2021/08/02 07:25:52;;;;;;;14.70;14.10;;;19.00;99.90;;;;;;5052342;28;20943;-68
2021/08/02 07:28:21;;;;;;;15.30;14.60;;;19.00;99.90;;;;;;5052439;28;20987;-67
2021/08/02 07:30:47;;;;;;;15.70;15.00;;;18.90;99.90;;;;;;5052222;28;20916;-67
2021/08/02 07:33:14;;;;;;;16.03;15.33;;;19.10;99.90;;;;;;5051878;28;20483;-67
2021/08/02 07:35:41;;;;;;;15.80;15.10;;;19.10;99.90;;;;;;5051939;28;20491;-67
2021/08/02 07:38:08;;;;;;;16.57;15.63;;;19.50;99.90;;;;;;5052022;28;20822;-67
2021/08/02 07:40:35;;;;;;;17.17;16.33;;;19.50;99.90;;;;;;5051975;28;20451;-67
2021/08/02 07:43:01;;;;;;;16.07;15.33;;;19.70;99.90;;;;;;5051499;28;20521;-69
2021/08/02 07:45:30;;;;;;;16.83;15.93;;;19.90;99.90;;;;;;5052062;28;20440;-69
2021/08/02 07:47:57;;;;;;;15.90;15.30;;;19.70;99.90;;;;;;5051836;28;20451;-66
2021/08/02 07:50:23;;;;;;;14.83;14.23;;;19.60;99.90;;;;;;5051657;28;20457;-67
2021/08/02 07:52:50;;;;;;;17.57;16.30;;;19.80;99.90;;;;;;5051274;28;20468;-67
2021/08/02 07:55:17;;;;;;;16.03;15.33;;;20.10;99.90;;;;;;5051811;28;20483;-66
2021/08/02 07:57:44;;;;;;;18.30;17.30;;;20.20;99.90;;;;;;5051915;28;20906;-67
2021/08/02 08:00:14;;;;;;;16.50;15.50;;;20.10;99.90;;;;;;5051728;28;20448;-65
2021/08/02 08:02:42;;;;;;;15.77;15.13;;;19.70;99.90;;;;;;5051579;28;20889;-65
2021/08/02 08:05:10;;;;;;;16.10;15.30;;;19.60;99.90;;;;;;5051733;28;20463;-65
2021/08/02 08:07:47;;;;;;;16.50;15.60;;;19.60;99.90;;;;;;5051481;28;20517;-67
2021/08/02 08:10:16;;;;;;;17.00;16.20;;;19.80;99.90;;;;;;5051823;28;20452;-66
2021/08/02 08:12:43;;;;;;;16.27;15.57;;;19.70;99.90;;;;;;5051340;28;20456;-67
2021/08/02 08:15:10;;;;;;;17.63;16.77;;;19.40;99.90;;;;;;5051477;28;20480;-66
2021/08/02 08:17:37;;;;;;;16.83;16.03;;;19.20;99.90;;;;;;5051469;28;20440;-66
2021/08/02 08:20:08;;;;;;;16.93;15.97;;;19.00;99.90;;;;;;5051502;28;20455;-66
2021/08/02 08:22:35;;;;;;;17.20;16.20;;;19.00;99.90;;;;;;5050719;28;20472;-67
2021/08/02 08:25:02;;;;;;;18.07;17.17;;;18.90;99.90;;;;;;5051364;28;20436;-66
2021/08/02 08:27:29;;;;;;;17.13;15.87;;;18.80;99.90;;;;;;5051229;28;21425;-66
2021/08/02 08:29:56;;;;;;;16.90;16.00;;;18.60;99.90;;;;;;5051123;28;20440;-67
2021/08/02 08:32:23;;;;;;;17.00;16.13;;;18.50;99.90;;;;;;5051042;28;20471;-68
2021/08/02 08:34:49;;;;;;;17.43;16.33;;;18.50;99.90;;;;;;5051254;28;20823;-67
2021/08/02 08:37:18;;;;;;;17.03;15.83;;;18.40;99.90;;;;;;5051404;28;20443;-67
2021/08/02 08:39:44;;;;;;;17.47;16.30;;;18.30;99.90;;;;;;5050758;28;20943;-68
2021/08/02 08:42:14;;;;;;;17.40;16.40;;;18.50;99.90;;;;;;5050847;28;20460;-66
2021/08/02 08:44:40;;;;;;;16.90;15.90;;;18.40;99.90;;;;;;5051428;28;20436;-66
2021/08/02 08:47:07;;;;;;;17.87;16.90;;;18.50;99.90;;;;;;5051128;28;20448;-65
2021/08/02 08:49:35;;;;;;;16.40;15.70;;;18.60;99.90;;;;;;5051421;28;20448;-67
2021/08/02 08:52:02;;;;;;;15.77;14.98;;;18.60;99.90;;;;;;5049915;28;20997;-66
2021/08/02 08:54:32;;;;;;;18.63;16.80;;;18.70;99.90;;;;;;5051026;28;20230;-65
2021/08/02 08:56:58;;;;;;;16.70;15.73;;;18.90;99.90;;;;;;5051115;28;20440;-66
2021/08/02 08:59:25;;;;;;;16.20;15.50;;;19.30;99.90;;;;;;5051259;28;20443;-66
2021/08/02 09:02:01;;;;;;;17.10;16.10;;;19.60;99.90;;;;;;5050831;28;20862;-65
2021/08/02 09:04:29;;;;;;;16.10;15.40;;;20.00;99.90;;;;;;5051372;28;20479;-65
2021/08/02 09:07:00;;;;;;;16.13;15.53;;;20.10;99.90;;;;;;5050515;28;20536;-65
2021/08/02 09:09:32;;;;;;;16.37;15.53;;;20.00;99.90;;;;;;5051136;28;20943;-66
2021/08/02 09:12:13;;;;;;;16.93;15.93;;;19.80;99.90;;;;;;5050967;28;20993;-66
2021/08/02 09:14:50;;;;;;;16.90;16.17;;;19.70;99.90;;;;;;5050904;28;20513;-65
2021/08/02 09:17:28;;;;;;;17.43;16.30;;;19.70;99.90;;;;;;5050761;28;20451;-65
2021/08/02 09:19:56;;;;;;;17.10;16.40;;;20.30;99.90;;;;;;5050782;28;20505;-66
2021/08/02 09:22:31;;;;;;;19.07;18.03;;;20.50;99.40;;;;;;5050498;28;20468;-65
2021/08/02 09:25:15;;;;;;;17.87;16.87;;;20.30;99.60;;;;;;5050868;28;20531;-65
2021/08/02 09:27:43;;;;;;;17.53;16.73;;;20.40;99.60;;;;;;5049668;28;20456;-66
2021/08/02 09:30:15;;;;;;;18.67;17.53;;;20.70;99.50;;;;;;5050681;28;20958;-66
2021/08/02 09:32:47;;;;;;;18.77;17.47;;;20.90;99.50;;;;;;5050437;28;20456;-67
2021/08/02 09:35:14;;;;;;;18.83;17.83;;;20.60;99.70;;;;;;5050609;28;20495;-66
2021/08/02 09:37:41;;;;;;;17.70;16.80;;;20.20;99.90;;;;;;5050736;28;20451;-67
2021/08/02 09:40:09;;;;;;;18.40;17.40;;;19.60;99.90;;;;;;5051038;28;20459;-65
2021/08/02 09:42:37;;;;;;;17.57;16.67;;;19.50;99.90;;;;;;5054132;28;20464;-67
2021/08/02 09:45:05;;;;;;;16.90;16.20;;;19.40;99.90;;;;;;5054257;28;20965;-67
2021/08/02 09:47:31;;;;;;;17.23;16.50;;;19.00;99.90;;;;;;5054095;28;20441;-67
2021/08/02 09:49:58;;;;;;;17.33;16.57;;;18.90;99.90;;;;;;5054090;28;20455;-67
2021/08/02 09:52:25;;;;;;;17.30;16.20;;;18.70;99.90;;;;;;5053521;28;20468;-64
2021/08/02 09:55:00;;;;;;;16.00;15.40;;;18.60;99.90;;;;;;5053747;28;20479;-66
2021/08/02 09:57:27;;;;;;;16.93;16.10;;;18.60;99.90;;;;;;5044959;28;20509;-67
2021/08/02 09:59:56;;;;;;;17.50;16.60;;;18.80;99.90;;;;;;5053822;28;20562;-67
2021/08/02 10:02:23;;;;;;;16.67;15.80;;;19.10;99.90;;;;;;5053612;28;20461;-67
2021/08/02 10:04:51;;;;;;;16.93;16.13;;;19.50;99.90;;;;;;5053988;28;21119;-67
2021/08/02 10:07:19;;;;;;;16.63;15.93;;;19.60;99.90;;;;;;5053516;28;20456;-67
2021/08/02 10:09:48;;;;;;;15.77;15.27;;;19.90;99.90;;;;;;5053980;28;20453;-67
2021/08/02 10:12:15;;;;;;;16.00;15.40;;;19.90;99.40;;;;;;5053248;28;20545;-67
2021/08/02 10:14:43;;;;;;;17.23;16.53;;;20.20;99.00;;;;;;5053100;28;20480;-66
2021/08/02 10:17:12;;;;;;;16.00;15.40;;;19.90;99.60;;;;;;5052296;28;21000;-66
2021/08/02 10:19:40;;;;;;;16.70;15.90;;;20.10;99.60;;;;;;5053596;28;20444;-66
2021/08/02 10:22:06;;;;;;;18.30;16.90;;;20.00;99.90;;;;;;5052787;28;20476;-67
2021/08/02 10:24:45;;;;;;;16.40;15.57;;;20.00;99.90;;;;;;5053315;28;20890;-67
2021/08/02 10:27:11;;;;;;;16.00;15.50;;;19.60;99.90;;;;;;5053634;28;20814;-67
2021/08/02 10:29:39;;;;;;;16.07;15.57;;;19.60;99.90;;;;;;5053558;28;20463;-66
2021/08/02 10:32:07;;;;;;;16.53;15.93;;;19.70;99.90;;;;;;5053074;28;20506;-67
2021/08/02 10:34:35;;;;;;;16.27;15.50;;;19.60;99.90;;;;;;5053377;28;20476;-67
2021/08/02 10:37:04;;;;;;;16.40;15.80;;;19.50;99.90;;;;;;5053321;28;20494;-67
2021/08/02 10:39:33;;;;;;;16.53;15.70;;;19.80;99.90;;;;;;5053224;28;20452;-68
2021/08/02 10:42:08;;;;;;;16.90;16.10;;;20.00;99.90;;;;;;5052852;28;20979;-67
2021/08/02 10:44:35;;;;;;;16.80;15.97;;;20.20;99.50;;;;;;5052729;28;20453;-67
2021/08/02 10:47:04;;;;;;;17.33;16.53;;;20.10;99.50;;;;;;5052201;28;20456;-68
2021/08/02 10:49:31;;;;;;;18.00;16.70;;;20.10;99.20;;;;;;5052542;28;20466;-68
2021/08/02 10:52:00;;;;;;;17.27;16.47;;;20.40;98.60;;;;;;5051576;28;20471;-68
2021/08/02 10:54:38;;;;;;;17.07;16.23;;;21.00;98.10;;;;;;5052329;28;20472;-68
2021/08/02 10:57:12;;;;;;;17.40;16.70;;;21.10;97.00;;;;;;5052249;28;20448;-67
2021/08/02 10:59:39;;;;;;;15.18;14.30;;;21.10;96.40;;;;;;5051571;28;20795;-68
2021/08/02 11:02:09;;;;;;;16.63;15.80;;;21.00;95.50;;;;;;5051358;28;20226;-69
2021/08/02 11:04:37;;;;;;;16.50;15.70;;;21.20;95.20;;;;;;5045642;28;20453;-68
2021/08/02 11:07:05;;;;;;;16.10;15.40;;;21.20;94.30;;;;;;5052154;28;20440;-68
2021/08/02 11:09:34;;;;;;;17.00;16.30;;;21.70;94.80;;;;;;5044456;28;20443;-69
2021/08/02 11:12:08;;;;;;;17.10;16.40;;;21.90;93.60;;;;;;5051552;28;20468;-67
2021/08/02 11:14:46;;;;;;;17.03;16.23;;;22.30;93.20;;;;;;5045170;28;20440;-68
2021/08/02 11:17:16;;;;;;;17.60;16.77;;;22.60;92.00;;;;;;5052102;28;20452;-67
2021/08/02 11:19:43;;;;;;;17.10;16.50;;;23.00;91.30;;;;;;5051750;28;20448;-66
2021/08/02 11:22:12;;;;;;;17.00;16.40;;;22.80;90.70;;;;;;5051254;28;20475;-68
2021/08/02 11:24:50;;;;;;;16.90;16.30;;;22.90;90.20;;;;;;5051663;28;20440;-66
2021/08/02 11:27:17;;;;;;;17.70;16.80;;;23.40;88.80;;;;;;5051718;28;20444;-66
2021/08/02 11:29:47;;;;;;;16.57;16.07;;;23.90;86.20;;;;;;5052010;28;20455;-66
2021/08/02 11:32:14;;;;;;;17.77;17.00;;;24.30;83.30;;;;;;5051363;28;20468;-66
2021/08/02 11:34:42;;;;;;;17.17;16.47;;;24.60;79.40;;;;;;5051853;28;20472;-67
2021/08/02 11:37:13;;;;;;;18.13;17.30;;;25.00;75.70;;;;;;5051387;28;20930;-66
2021/08/02 11:39:41;;;;;;;15.90;15.40;;;25.40;72.90;;;;;;5050452;28;20445;-67
2021/08/02 11:42:10;;;;;;;17.60;16.80;;;25.30;70.70;;;;;;5050600;28;20467;-66
2021/08/02 11:44:39;;;;;;;17.30;16.60;;;25.20;69.80;;;;;;5051360;28;20983;-66
2021/08/02 11:47:10;;;;;;;18.00;17.03;;;26.10;69.30;;;;;;5051095;28;20452;-67
2021/08/02 11:49:39;;;;;;;18.30;17.60;;;26.90;65.80;;;;;;5050895;28;20437;-67
2021/08/02 11:52:07;;;;;;;19.03;18.33;;;27.80;59.80;;;;;;5047809;28;20464;-67
2021/08/02 11:54:37;;;;;;;18.90;18.20;;;28.20;57.40;;;;;;5051002;28;20447;-68
2021/08/02 11:57:04;;;;;;;18.27;17.43;;;28.80;55.30;;;;;;5051274;28;20479;-68
2021/08/02 11:59:31;;;;;;;18.63;17.80;;;29.70;51.90;;;;;;5051809;28;20993;-68
2021/08/02 12:01:59;;;;;;;18.80;17.90;;;30.00;50.50;;;;;;5051431;28;20464;-67
2021/08/02 12:04:27;;;;;;;19.33;18.53;;;30.40;49.40;;;;;;5051064;28;20476;-67
2021/08/02 12:06:56;;;;;;;19.27;18.53;;;30.90;48.40;;;;;;5051393;28;20440;-68
2021/08/02 12:09:33;;;;;;;19.90;18.90;;;31.00;46.80;;;;;;5051715;28;20444;-68
2021/08/02 12:12:02;;;;;;;18.83;18.23;;;30.90;46.80;;;;;;5051238;28;20462;-68
2021/08/02 12:14:31;;;;;;;19.37;18.67;;;31.90;45.60;;;;;;5051615;28;20444;-68
2021/08/02 12:17:06;;;;;;;18.20;17.60;;;31.20;42.60;;;;;;5051595;28;20486;-68
2021/08/02 12:19:43;;;;;;;18.60;18.00;;;31.20;43.10;;;;;;5051516;28;20474;-68
2021/08/02 12:22:10;;;;;;;19.53;18.73;;;31.70;41.90;;;;;;5050985;28;20479;-68
2021/08/02 12:24:49;;;;;;;18.97;18.27;;;31.30;41.00;;;;;;5051441;28;20443;-68
2021/08/02 12:27:18;;;;;;;18.93;18.00;;;31.90;41.60;;;;;;5051348;28;20439;-68
2021/08/02 12:29:56;;;;;;;18.97;18.33;;;32.40;41.20;;;;;;5051417;28;20947;-67
2021/08/02 12:32:38;;;;;;;18.43;17.73;;;32.20;40.90;;;;;;5051039;28;20838;-67
2021/08/02 12:35:08;;;;;;;18.70;18.00;;;31.90;40.00;;;;;;5051271;28;20454;-67
2021/08/02 12:37:35;;;;;;;18.40;17.70;;;32.00;41.30;;;;;;5051346;28;20440;-67